Time;durP1;ratioP1;P1;durP2;ratioP2;P2;SDS_P1;SDS_P2;PMS_P1;PMS_P2;Temp;Humidity;BMP_temperature;BMP_pressure;BME280_temperature;BME280_humidity;BME280_pressure;Samples;Min_cycle;Max_cycle;Signal;HPM_P1;HPM_P2
2023/07/04 00:00:12;;;;;;;8.77;0.30;;;13.90;99.90;;;;;;5037590;28;20431;-78
2023/07/04 00:02:38;;;;;;;10.35;0.75;;;14.00;99.90;;;;;;5035845;28;20036;-78
2023/07/04 00:05:05;;;;;;;15.80;0.52;;;13.90;99.90;;;;;;5037525;28;20018;-79
2023/07/04 00:07:34;;;;;;;5.75;1.02;;;14.00;99.90;;;;;;5036292;28;20021;-78
2023/07/04 00:09:59;;;;;;;16.55;1.17;;;14.00;99.90;;;;;;5036490;28;20040;-79
2023/07/04 00:12:25;;;;;;;7.63;1.00;;;14.00;99.90;;;;;;5036702;28;20018;-79
2023/07/04 00:14:51;;;;;;;7.63;0.35;;;14.00;99.90;;;;;;5038002;28;20040;-78
2023/07/04 00:17:18;;;;;;;11.60;0.98;;;14.00;99.90;;;;;;5037636;28;20064;-78
2023/07/04 00:19:44;;;;;;;4.72;0.10;;;14.00;99.90;;;;;;5037948;28;20429;-78
2023/07/04 00:22:10;;;;;;;5.07;0.30;;;14.00;99.90;;;;;;5038544;28;20025;-78
2023/07/04 00:24:37;;;;;;;4.90;1.38;;;14.00;99.90;;;;;;5038109;28;20033;-78
2023/07/04 00:27:03;;;;;;;7.05;0.55;;;14.00;99.90;;;;;;5038481;28;20017;-78
2023/07/04 00:29:29;;;;;;;3.85;0.47;;;13.90;99.90;;;;;;5037673;28;20030;-78
2023/07/04 00:31:55;;;;;;;9.98;1.17;;;13.90;99.90;;;;;;5035743;28;20026;-78
2023/07/04 00:34:21;;;;;;;4.03;0.50;;;13.90;99.90;;;;;;5035700;28;20064;-78
2023/07/04 00:36:47;;;;;;;7.70;0.10;;;13.90;99.90;;;;;;5032853;28;20556;-77
2023/07/04 00:39:13;;;;;;;7.93;0.80;;;14.90;99.90;;;;;;5034184;28;20108;-77
2023/07/04 00:41:41;;;;;;;3.45;0.43;;;13.90;99.90;;;;;;5033435;28;20030;-77
2023/07/04 00:44:20;;;;;;;8.48;0.52;;;14.00;99.90;;;;;;5033267;28;20424;-77
2023/07/04 00:46:54;;;;;;;11.23;0.70;;;14.00;99.90;;;;;;5036561;28;20022;-78
2023/07/04 00:49:56;;;;;;;2.58;0.35;;;13.90;99.90;;;;;;5035796;28;20060;-78
2023/07/04 00:52:27;;;;;;;5.63;1.15;;;13.90;99.90;;;;;;5022728;28;20037;-78
2023/07/04 00:54:57;;;;;;;2.97;0.10;;;13.90;99.90;;;;;;5037458;28;20029;-78
2023/07/04 00:57:31;;;;;;;2.28;0.10;;;13.70;99.90;;;;;;5039251;28;20388;-77
2023/07/04 00:59:58;;;;;;;8.10;1.55;;;13.70;99.90;;;;;;5041020;28;20078;-78
2023/07/04 01:02:27;;;;;;;3.13;0.10;;;13.70;99.90;;;;;;5039717;28;20021;-80
2023/07/04 01:04:53;;;;;;;5.82;0.00;;;13.60;99.90;;;;;;5040460;28;20041;-78
2023/07/04 01:07:46;;;;;;;4.78;0.90;;;13.50;99.90;;;;;;5039979;28;20040;-78
2023/07/04 01:10:13;;;;;;;3.75;0.00;;;13.50;99.90;;;;;;5040082;28;20075;-78
2023/07/04 01:12:39;;;;;;;2.72;0.00;;;13.50;99.90;;;;;;5041076;28;20029;-78
2023/07/04 01:15:07;;;;;;;2.92;0.00;;;13.50;99.90;;;;;;5040143;28;20411;-78
2023/07/04 01:17:32;;;;;;;6.93;0.25;;;13.40;99.90;;;;;;5040141;28;20043;-78
2023/07/04 01:19:59;;;;;;;4.20;0.10;;;13.40;99.90;;;;;;5041054;28;20077;-78
2023/07/04 01:22:48;;;;;;;4.30;0.32;;;13.40;99.90;;;;;;5036962;28;20545;-78
2023/07/04 01:25:27;;;;;;;3.97;0.00;;;13.30;99.90;;;;;;5035624;28;20025;-78
2023/07/04 01:27:59;;;;;;;1.25;0.20;;;13.30;99.90;;;;;;5035737;28;20068;-78
2023/07/04 01:30:27;;;;;;;2.28;0.20;;;13.30;99.90;;;;;;5035701;28;20583;-77
2023/07/04 01:32:53;;;;;;;2.85;0.08;;;13.30;99.90;;;;;;5037159;28;20025;-77
2023/07/04 01:35:19;;;;;;;1.92;0.00;;;13.30;99.90;;;;;;5036542;28;20025;-78
2023/07/04 01:37:45;;;;;;;2.08;0.00;;;13.20;99.90;;;;;;5036804;28;20032;-79
2023/07/04 01:40:12;;;;;;;4.75;0.13;;;13.20;99.90;;;;;;5036872;28;20026;-78
2023/07/04 01:42:38;;;;;;;8.02;0.35;;;13.20;99.90;;;;;;5035595;28;20507;-78
2023/07/04 01:45:06;;;;;;;2.45;0.00;;;13.20;99.90;;;;;;5038324;28;20093;-79
2023/07/04 01:47:33;;;;;;;0.43;0.13;;;13.10;99.90;;;;;;5039371;28;20025;-78
2023/07/04 01:50:00;;;;;;;2.05;0.00;;;13.00;99.90;;;;;;5040522;28;20048;-78
2023/07/04 01:52:27;;;;;;;0.93;0.00;;;12.90;99.90;;;;;;5041218;28;20036;-79
2023/07/04 01:54:53;;;;;;;2.13;0.08;;;12.90;99.90;;;;;;5040504;28;20032;-78
2023/07/04 01:57:18;;;;;;;3.80;0.20;;;12.90;99.90;;;;;;5041046;28;20029;-79
2023/07/04 01:59:44;;;;;;;1.45;0.00;;;12.80;99.90;;;;;;5039915;28;20026;-79
2023/07/04 02:02:10;;;;;;;1.77;0.00;;;12.80;99.90;;;;;;5040905;28;20084;-78
2023/07/04 02:04:35;;;;;;;2.75;0.00;;;12.70;99.90;;;;;;5041210;28;20476;-78
2023/07/04 02:07:01;;;;;;;3.40;0.03;;;12.70;99.90;;;;;;5040873;28;20022;-78
2023/07/04 02:09:26;;;;;;;3.17;0.15;;;12.70;99.90;;;;;;5040742;28;20029;-79
2023/07/04 02:11:52;;;;;;;3.75;0.20;;;12.70;99.90;;;;;;5042104;28;20032;-79
2023/07/04 02:14:17;;;;;;;3.78;0.82;;;12.70;99.90;;;;;;5040771;28;20116;-78
2023/07/04 02:16:46;;;;;;;2.08;0.10;;;12.60;99.90;;;;;;5039020;28;20128;-79
2023/07/04 02:19:12;;;;;;;3.42;0.00;;;12.60;99.90;;;;;;5039633;28;20022;-79
2023/07/04 02:21:37;;;;;;;2.50;0.00;;;12.70;99.90;;;;;;5040786;28;20058;-78
2023/07/04 02:24:03;;;;;;;4.90;0.00;;;12.60;99.90;;;;;;5039444;28;20048;-78
2023/07/04 02:26:32;;;;;;;6.68;0.10;;;12.60;99.90;;;;;;5041429;28;20036;-78
2023/07/04 02:28:57;;;;;;;8.82;0.73;;;12.60;99.90;;;;;;5038683;28;20366;-78
2023/07/04 02:31:23;;;;;;;4.28;0.00;;;12.60;99.90;;;;;;5040027;28;20029;-78
2023/07/04 02:33:49;;;;;;;1.38;0.00;;;12.60;99.90;;;;;;5038185;28;20026;-78
2023/07/04 02:36:15;;;;;;;2.88;0.00;;;12.60;99.90;;;;;;5040213;28;20025;-78
2023/07/04 02:38:41;;;;;;;1.02;0.10;;;12.50;99.90;;;;;;5039054;28;20120;-78
2023/07/04 02:41:08;;;;;;;2.05;0.00;;;12.50;99.90;;;;;;5038773;28;20048;-78
2023/07/04 02:43:35;;;;;;;2.97;0.00;;;12.50;99.90;;;;;;5039612;28;20043;-79
2023/07/04 02:46:01;;;;;;;1.85;0.00;;;12.50;99.90;;;;;;5038405;28;20097;-78
2023/07/04 02:48:28;;;;;;;5.10;0.00;;;12.50;99.90;;;;;;5038342;28;20040;-78
2023/07/04 02:50:53;;;;;;;2.25;0.10;;;12.50;99.90;;;;;;5039451;28;20100;-79
2023/07/04 02:53:21;;;;;;;4.22;0.00;;;12.50;99.90;;;;;;5039985;28;20479;-78
2023/07/04 02:55:48;;;;;;;4.57;0.10;;;12.60;99.90;;;;;;5038317;28;20037;-79
2023/07/04 02:58:14;;;;;;;1.10;0.00;;;12.50;99.90;;;;;;5038650;28;20025;-78
2023/07/04 03:00:41;;;;;;;4.03;0.20;;;12.60;99.90;;;;;;5039294;28;20358;-78
2023/07/04 03:03:07;;;;;;;5.93;0.15;;;12.60;99.90;;;;;;5038695;28;20080;-78
2023/07/04 03:05:33;;;;;;;1.83;0.30;;;12.50;99.90;;;;;;5037123;28;20022;-78
2023/07/04 03:07:58;;;;;;;2.55;0.00;;;13.20;99.90;;;;;;5039987;28;20033;-78
2023/07/04 03:10:24;;;;;;;4.50;0.00;;;12.50;99.90;;;;;;5039742;28;20102;-78
2023/07/04 03:12:49;;;;;;;1.55;0.43;;;12.50;99.90;;;;;;5038928;28;20041;-78
2023/07/04 03:15:15;;;;;;;4.70;0.80;;;12.50;99.90;;;;;;5037920;28;20040;-78
2023/07/04 03:17:40;;;;;;;3.13;0.45;;;12.40;99.90;;;;;;5039290;28;20026;-78
2023/07/04 03:20:09;;;;;;;5.55;0.25;;;12.40;99.90;;;;;;5036838;28;20374;-78
2023/07/04 03:22:42;;;;;;;5.30;0.20;;;12.40;99.90;;;;;;5037123;28;20547;-78
2023/07/04 03:25:09;;;;;;;2.92;0.10;;;12.50;99.90;;;;;;5038987;28;20026;-78
2023/07/04 03:27:36;;;;;;;2.38;0.05;;;12.40;99.90;;;;;;5037729;28;20018;-78
2023/07/04 03:30:03;;;;;;;3.22;0.15;;;12.50;99.90;;;;;;5038421;28;20025;-78
2023/07/04 03:32:28;;;;;;;4.25;0.20;;;12.50;99.90;;;;;;5038435;28;20028;-78
2023/07/04 03:34:59;;;;;;;3.90;0.10;;;12.50;99.90;;;;;;5037085;28;20029;-78
2023/07/04 03:37:25;;;;;;;3.35;0.20;;;12.60;99.90;;;;;;5039139;28;20021;-78
2023/07/04 03:39:50;;;;;;;6.10;0.57;;;12.60;99.90;;;;;;5038866;28;20075;-78
2023/07/04 03:42:16;;;;;;;1.30;0.20;;;12.50;99.90;;;;;;5038665;28;20025;-78
2023/07/04 03:44:42;;;;;;;1.73;0.00;;;12.50;99.90;;;;;;5038037;28;20021;-78
2023/07/04 03:47:07;;;;;;;4.55;0.08;;;12.50;99.90;;;;;;5033730;28;20021;-75
2023/07/04 03:49:33;;;;;;;15.30;1.17;;;12.40;99.90;;;;;;5033000;28;20477;-75
2023/07/04 03:51:59;;;;;;;4.85;0.00;;;12.40;99.90;;;;;;5033172;28;20040;-76
2023/07/04 03:54:24;;;;;;;5.47;0.00;;;12.40;99.90;;;;;;5033040;28;20370;-75
2023/07/04 03:56:50;;;;;;;5.43;0.90;;;12.40;99.90;;;;;;5033314;28;20021;-75
2023/07/04 03:59:15;;;;;;;5.35;0.32;;;12.40;99.90;;;;;;5033014;28;20103;-75
2023/07/04 04:01:41;;;;;;;3.95;0.15;;;12.40;99.90;;;;;;5031592;28;20485;-75
2023/07/04 04:04:06;;;;;;;2.85;0.00;;;12.50;99.90;;;;;;5031655;28;20018;-75
2023/07/04 04:06:32;;;;;;;5.35;0.00;;;12.50;99.90;;;;;;5031677;28;20075;-75
2023/07/04 04:08:58;;;;;;;8.68;0.10;;;12.50;99.90;;;;;;5031708;28;20014;-75
2023/07/04 04:11:23;;;;;;;1.13;0.00;;;12.50;99.90;;;;;;5031706;28;20067;-75
2023/07/04 04:13:49;;;;;;;4.70;0.35;;;12.50;99.90;;;;;;5032630;28;20084;-75
2023/07/04 04:16:14;;;;;;;2.00;0.10;;;12.60;99.90;;;;;;5032797;28;20021;-76
2023/07/04 04:18:40;;;;;;;5.25;0.20;;;12.60;99.90;;;;;;5031670;28;20489;-76
2023/07/04 04:21:07;;;;;;;2.40;0.10;;;12.60;99.90;;;;;;5032859;28;20026;-75
2023/07/04 04:23:33;;;;;;;4.25;0.20;;;12.60;99.90;;;;;;5031467;28;20021;-75
2023/07/04 04:25:58;;;;;;;6.75;0.10;;;12.60;99.90;;;;;;5031494;28;20113;-75
2023/07/04 04:28:24;;;;;;;6.93;0.32;;;12.70;99.90;;;;;;5033148;28;20021;-76
2023/07/04 04:30:50;;;;;;;2.95;0.30;;;12.70;99.90;;;;;;5032173;28;20055;-76
2023/07/04 04:33:16;;;;;;;2.20;0.00;;;12.80;99.90;;;;;;5035428;28;20033;-76
2023/07/04 04:35:44;;;;;;;5.30;0.20;;;12.80;99.90;;;;;;5035329;28;20026;-76
2023/07/04 04:38:10;;;;;;;2.15;0.35;;;12.90;99.90;;;;;;5035211;28;20030;-76
2023/07/04 04:40:37;;;;;;;0.70;0.17;;;12.90;99.90;;;;;;5036599;28;20155;-75
2023/07/04 04:43:03;;;;;;;1.88;0.15;;;13.00;99.90;;;;;;5036420;28;20036;-75
2023/07/04 04:45:29;;;;;;;6.63;0.40;;;13.10;99.90;;;;;;5036579;28;20091;-75
2023/07/04 04:47:55;;;;;;;7.90;0.40;;;13.10;99.90;;;;;;5036305;28;20057;-75
2023/07/04 04:50:25;;;;;;;1.60;0.47;;;13.10;99.90;;;;;;5036412;28;20029;-76
2023/07/04 04:52:51;;;;;;;6.97;1.00;;;13.10;99.90;;;;;;5034915;28;20502;-76
2023/07/04 04:55:18;;;;;;;5.43;0.20;;;13.20;99.90;;;;;;5035013;28;20488;-77
2023/07/04 04:57:43;;;;;;;4.43;0.20;;;13.20;99.90;;;;;;5036218;28;20025;-76
2023/07/04 05:00:10;;;;;;;2.50;0.75;;;13.30;99.90;;;;;;5036201;28;20029;-76
2023/07/04 05:02:36;;;;;;;3.83;0.35;;;13.40;99.90;;;;;;5034769;28;20397;-76
2023/07/04 05:05:02;;;;;;;6.88;0.13;;;13.50;99.90;;;;;;5036025;28;20018;-76
2023/07/04 05:07:29;;;;;;;12.77;0.55;;;13.50;99.90;;;;;;5036004;28;20021;-76
2023/07/04 05:09:57;;;;;;;5.95;0.05;;;13.50;99.90;;;;;;5035985;28;20032;-76
2023/07/04 05:12:23;;;;;;;7.55;0.95;;;13.50;99.90;;;;;;5034630;28;20025;-76
2023/07/04 05:14:49;;;;;;;4.72;0.38;;;13.50;99.90;;;;;;5035766;28;20092;-76
2023/07/04 05:17:15;;;;;;;4.75;0.43;;;13.60;99.90;;;;;;5035936;28;20022;-76
2023/07/04 05:19:40;;;;;;;4.88;0.00;;;13.60;99.90;;;;;;5035892;28;20057;-76
2023/07/04 05:22:06;;;;;;;6.35;0.30;;;13.60;99.90;;;;;;5035655;28;20025;-76
2023/07/04 05:24:31;;;;;;;5.07;0.43;;;13.60;99.90;;;;;;5035672;28;20481;-75
2023/07/04 05:26:57;;;;;;;3.30;0.63;;;14.20;99.90;;;;;;5035704;28;20063;-76
2023/07/04 05:29:23;;;;;;;3.08;0.10;;;13.90;99.90;;;;;;5034431;28;20115;-76
2023/07/04 05:31:49;;;;;;;2.33;0.40;;;14.00;99.90;;;;;;5034196;28;20044;-76
2023/07/04 05:34:14;;;;;;;4.63;0.50;;;14.10;99.90;;;;;;5035493;28;20032;-76
2023/07/04 05:36:40;;;;;;;5.35;0.70;;;14.20;99.90;;;;;;5035929;28;20021;-76
2023/07/04 05:39:08;;;;;;;5.03;0.10;;;14.30;99.90;;;;;;5035765;28;20033;-76
2023/07/04 05:41:36;;;;;;;6.90;0.65;;;14.40;99.90;;;;;;5034210;28;20028;-76
2023/07/04 05:44:05;;;;;;;2.50;0.00;;;14.60;99.90;;;;;;5034628;28;20386;-76
2023/07/04 05:46:31;;;;;;;3.83;0.05;;;14.80;99.90;;;;;;5035250;28;20021;-75
2023/07/04 05:48:58;;;;;;;1.75;0.30;;;15.00;99.90;;;;;;5034005;28;20068;-75
2023/07/04 05:51:25;;;;;;;3.05;0.22;;;15.10;99.90;;;;;;5034031;28;20053;-75
2023/07/04 05:53:52;;;;;;;7.47;0.82;;;15.20;99.90;;;;;;5034824;28;20097;-75
2023/07/04 05:56:25;;;;;;;1.98;0.20;;;15.20;99.90;;;;;;5035134;28;20485;-76
2023/07/04 05:58:59;;;;;;;7.22;1.13;;;15.40;99.90;;;;;;5033925;28;20025;-76
2023/07/04 06:01:27;;;;;;;2.50;0.40;;;15.40;99.90;;;;;;5035014;28;20021;-76
2023/07/04 06:03:54;;;;;;;3.35;0.15;;;15.50;99.90;;;;;;5033560;28;20108;-76
2023/07/04 06:06:22;;;;;;;4.78;0.85;;;15.50;99.90;;;;;;5035313;28;20018;-74
2023/07/04 06:08:49;;;;;;;6.22;0.40;;;15.70;99.90;;;;;;5035002;28;20013;-75
2023/07/04 06:11:15;;;;;;;3.03;0.00;;;15.80;99.90;;;;;;5035066;28;20053;-75
2023/07/04 06:13:41;;;;;;;9.20;1.10;;;15.80;99.90;;;;;;5034489;28;20108;-75
2023/07/04 06:16:07;;;;;;;2.05;0.10;;;15.70;99.90;;;;;;5034792;28;20124;-75
2023/07/04 06:18:34;;;;;;;5.88;0.10;;;15.80;99.90;;;;;;5034790;28;20469;-75
2023/07/04 06:21:20;;;;;;;8.40;0.20;;;15.90;99.90;;;;;;5034641;28;20029;-75
2023/07/04 06:23:46;;;;;;;5.53;0.65;;;16.20;99.90;;;;;;5033942;28;20033;-75
2023/07/04 06:26:13;;;;;;;4.57;0.82;;;16.40;99.90;;;;;;5033840;28;20481;-75
2023/07/04 06:28:40;;;;;;;5.15;0.73;;;16.60;99.90;;;;;;5034563;28;20018;-75
2023/07/04 06:31:07;;;;;;;1.85;0.50;;;16.50;99.90;;;;;;5033275;28;20045;-75
2023/07/04 06:33:33;;;;;;;1.80;0.00;;;16.40;99.90;;;;;;5034451;28;20025;-75
2023/07/04 06:35:59;;;;;;;4.43;0.40;;;16.40;99.90;;;;;;5034475;28;20021;-75
2023/07/04 06:38:25;;;;;;;9.88;1.20;;;16.50;99.90;;;;;;5034425;28;20060;-75
2023/07/04 06:41:01;;;;;;;2.05;0.00;;;16.70;99.90;;;;;;5034480;28;20049;-75
2023/07/04 06:43:29;;;;;;;3.88;0.88;;;16.70;99.90;;;;;;5034850;28;20044;-75
2023/07/04 06:45:55;;;;;;;3.40;0.00;;;16.80;99.90;;;;;;5034352;28;20095;-75
2023/07/04 06:48:22;;;;;;;5.55;0.85;;;16.90;99.90;;;;;;5032990;28;20017;-75
2023/07/04 06:51:01;;;;;;;2.75;0.10;;;17.00;99.90;;;;;;5033250;28;20025;-75
2023/07/04 06:53:27;;;;;;;5.78;0.20;;;16.90;99.90;;;;;;5034118;28;20026;-75
2023/07/04 06:55:53;;;;;;;10.50;1.75;;;17.00;99.90;;;;;;5033209;28;20033;-75
2023/07/04 06:58:20;;;;;;;8.32;0.32;;;17.10;99.90;;;;;;5034065;28;20029;-75
2023/07/04 07:00:46;;;;;;;2.70;0.10;;;17.20;99.90;;;;;;5034159;28;20388;-75
2023/07/04 07:03:11;;;;;;;4.93;0.90;;;17.30;99.90;;;;;;5033820;28;20025;-75
2023/07/04 07:05:41;;;;;;;7.25;1.17;;;17.70;99.90;;;;;;5033872;28;20496;-75
2023/07/04 07:08:07;;;;;;;3.25;0.60;;;17.50;99.90;;;;;;5033918;28;20056;-75
2023/07/04 07:10:36;;;;;;;2.15;0.08;;;17.50;99.90;;;;;;5032805;28;20090;-75
2023/07/04 07:13:05;;;;;;;3.72;0.40;;;17.30;99.90;;;;;;5034052;28;20029;-75
2023/07/04 07:15:31;;;;;;;4.43;0.00;;;17.20;99.90;;;;;;5034391;28;20030;-75
2023/07/04 07:17:56;;;;;;;14.80;1.45;;;17.00;99.90;;;;;;5032463;28;20033;-75
2023/07/04 07:20:22;;;;;;;5.05;1.02;;;16.80;99.90;;;;;;5033697;28;20056;-75
2023/07/04 07:22:47;;;;;;;2.95;0.32;;;16.70;99.90;;;;;;5033501;28;20104;-75
2023/07/04 07:25:13;;;;;;;5.13;0.35;;;16.60;99.90;;;;;;5033613;28;20036;-75
2023/07/04 07:27:39;;;;;;;3.00;0.20;;;16.40;99.90;;;;;;5033603;28;20029;-75
2023/07/04 07:30:05;;;;;;;12.95;1.38;;;16.20;99.90;;;;;;5032226;28;20021;-75
2023/07/04 07:32:31;;;;;;;7.22;0.52;;;15.90;99.90;;;;;;5033368;28;20033;-75
2023/07/04 07:34:56;;;;;;;9.95;1.00;;;15.90;99.90;;;;;;5033412;28;20029;-75
2023/07/04 07:37:22;;;;;;;8.52;0.10;;;15.80;99.90;;;;;;5033933;28;20033;-75
2023/07/04 07:39:49;;;;;;;9.60;0.95;;;15.70;99.90;;;;;;5033368;28;20029;-75
2023/07/04 07:42:16;;;;;;;12.23;0.20;;;15.80;99.90;;;;;;5033310;28;20068;-75
2023/07/04 07:44:42;;;;;;;7.80;1.00;;;16.30;99.90;;;;;;5033327;28;20485;-75
2023/07/04 07:47:10;;;;;;;5.97;1.38;;;16.10;99.90;;;;;;5033300;28;20450;-75
2023/07/04 07:49:36;;;;;;;8.05;0.98;;;15.80;99.90;;;;;;5033384;28;20060;-75
2023/07/04 07:52:01;;;;;;;2.08;0.25;;;15.70;99.90;;;;;;5033280;28;20512;-75
2023/07/04 07:54:27;;;;;;;4.07;0.57;;;15.90;99.90;;;;;;5033117;28;20063;-75
2023/07/04 07:56:53;;;;;;;4.78;0.65;;;16.00;99.90;;;;;;5033187;28;20029;-75
2023/07/04 07:59:18;;;;;;;5.60;0.73;;;16.10;99.90;;;;;;5033701;28;20022;-75
2023/07/04 08:01:44;;;;;;;5.25;0.10;;;16.10;99.90;;;;;;5033079;28;20030;-75
2023/07/04 08:04:10;;;;;;;10.55;0.75;;;16.10;99.90;;;;;;5033074;28;20100;-75
2023/07/04 08:06:39;;;;;;;4.40;0.63;;;16.40;99.90;;;;;;5037085;28;20508;-75
2023/07/04 08:09:08;;;;;;;9.60;0.88;;;16.10;99.90;;;;;;5040189;28;20509;-75
2023/07/04 08:11:34;;;;;;;3.58;0.30;;;16.10;99.90;;;;;;5039675;28;20497;-75
2023/07/04 08:14:00;;;;;;;6.10;0.25;;;16.20;99.90;;;;;;5039478;28;20471;-75
2023/07/04 08:16:30;;;;;;;5.05;0.15;;;16.20;99.90;;;;;;5039674;28;20017;-75
2023/07/04 08:18:58;;;;;;;8.20;0.80;;;16.30;99.90;;;;;;5039602;28;20104;-75
2023/07/04 08:21:24;;;;;;;6.32;0.20;;;16.40;99.90;;;;;;5039521;28;20554;-75
2023/07/04 08:23:50;;;;;;;5.65;0.00;;;16.60;99.90;;;;;;5039544;28;20018;-75
2023/07/04 08:26:21;;;;;;;8.32;0.65;;;16.70;99.90;;;;;;5038272;28;20020;-75
2023/07/04 08:28:47;;;;;;;3.88;0.57;;;16.70;99.90;;;;;;5039543;28;20029;-75
2023/07/04 08:31:17;;;;;;;8.65;0.52;;;16.80;99.90;;;;;;5039427;28;20021;-75
2023/07/04 08:33:43;;;;;;;2.85;0.20;;;16.90;99.90;;;;;;5039428;28;20068;-75
2023/07/04 08:36:10;;;;;;;8.85;0.30;;;16.90;99.90;;;;;;5039447;28;20028;-75
2023/07/04 08:38:36;;;;;;;11.43;0.20;;;17.00;99.90;;;;;;5039420;28;20048;-75
2023/07/04 08:41:02;;;;;;;5.65;0.10;;;17.20;99.90;;;;;;5039449;28;20021;-75
2023/07/04 08:43:38;;;;;;;4.80;0.90;;;17.30;99.90;;;;;;5039313;28;20374;-75
2023/07/04 08:46:05;;;;;;;7.40;0.30;;;17.60;99.90;;;;;;5039479;28;20029;-75
2023/07/04 08:48:32;;;;;;;8.32;0.65;;;17.70;99.90;;;;;;5039331;28;20021;-75
2023/07/04 08:51:01;;;;;;;6.38;0.85;;;17.80;99.90;;;;;;5039247;28;20033;-75
2023/07/04 08:53:28;;;;;;;6.43;0.47;;;17.80;99.90;;;;;;5039238;28;20553;-75
2023/07/04 08:56:37;;;;;;;7.50;0.47;;;18.00;99.90;;;;;;5037914;28;20108;-75
2023/07/04 08:59:08;;;;;;;5.65;0.10;;;18.00;99.90;;;;;;5034838;28;20128;-75
2023/07/04 09:02:15;;;;;;;7.22;0.32;;;18.10;99.90;;;;;;5037876;28;20522;-75
2023/07/04 09:04:56;;;;;;;3.50;0.63;;;18.20;99.90;;;;;;5039128;28;20048;-75
2023/07/04 09:07:32;;;;;;;6.10;0.40;;;18.10;99.90;;;;;;5039438;28;20026;-75
2023/07/04 09:10:19;;;;;;;2.63;0.45;;;18.00;99.90;;;;;;5039190;28;20013;-75
2023/07/04 09:12:47;;;;;;;4.70;0.20;;;18.10;99.90;;;;;;5038867;28;20442;-75
2023/07/04 09:15:23;;;;;;;2.05;0.20;;;18.20;99.90;;;;;;5039177;28;20091;-76
2023/07/04 09:18:00;;;;;;;2.42;0.00;;;18.30;99.90;;;;;;5035896;28;20025;-75
2023/07/04 09:20:31;;;;;;;4.30;0.55;;;18.50;99.90;;;;;;5035874;28;20059;-75
2023/07/04 09:22:56;;;;;;;2.42;0.20;;;18.60;99.90;;;;;;5034479;28;20044;-75
2023/07/04 09:25:22;;;;;;;4.57;0.50;;;18.50;99.90;;;;;;5035729;28;20104;-75
2023/07/04 09:27:51;;;;;;;7.43;0.10;;;18.40;99.90;;;;;;5035869;28;20046;-75
2023/07/04 09:30:16;;;;;;;7.18;0.28;;;18.30;99.90;;;;;;5035744;28;20112;-75
2023/07/04 09:32:42;;;;;;;5.60;0.65;;;18.10;99.90;;;;;;5035623;28;20488;-75
2023/07/04 09:35:10;;;;;;;4.45;0.30;;;18.10;99.90;;;;;;5035575;28;20026;-75
2023/07/04 09:37:57;;;;;;;3.95;0.77;;;18.00;99.90;;;;;;5035469;28;20022;-75
2023/07/04 09:40:38;;;;;;;1.00;0.00;;;18.10;99.90;;;;;;5035625;28;20029;-75
2023/07/04 09:43:04;;;;;;;5.00;0.60;;;18.10;99.90;;;;;;5034066;28;20033;-75
2023/07/04 09:45:30;;;;;;;5.28;0.98;;;18.20;99.90;;;;;;5035734;28;20022;-75
2023/07/04 09:47:55;;;;;;;4.25;0.05;;;18.40;99.90;;;;;;5035439;28;20089;-75
2023/07/04 09:50:30;;;;;;;2.08;0.32;;;18.50;99.90;;;;;;5035424;28;20022;-76
2023/07/04 09:53:09;;;;;;;2.72;0.50;;;18.60;99.90;;;;;;5035364;28;20032;-75
2023/07/04 09:55:37;;;;;;;2.78;0.38;;;18.80;99.90;;;;;;5035377;28;20026;-76
2023/07/04 09:58:23;;;;;;;6.45;0.75;;;19.20;99.90;;;;;;5035859;28;20080;-75
2023/07/04 10:01:27;;;;;;;3.03;0.05;;;19.20;99.90;;;;;;5035235;28;20048;-75
2023/07/04 10:04:06;;;;;;;10.80;0.75;;;19.60;99.90;;;;;;4994222;28;20453;-75
2023/07/04 10:06:33;;;;;;;6.85;0.45;;;19.70;99.90;;;;;;4994346;28;20090;-75
2023/07/04 10:09:02;;;;;;;8.73;0.57;;;19.90;99.90;;;;;;5007819;28;20030;-75
2023/07/04 10:11:37;;;;;;;5.35;0.47;;;20.00;99.90;;;;;;5035057;28;20112;-75
2023/07/04 10:14:07;;;;;;;9.10;0.60;;;20.00;99.90;;;;;;5034824;28;20036;-75
2023/07/04 10:16:33;;;;;;;1.98;0.00;;;19.90;99.90;;;;;;5033617;28;20026;-75
2023/07/04 10:19:09;;;;;;;5.55;0.20;;;20.10;99.90;;;;;;5034909;28;20369;-75
2023/07/04 10:21:45;;;;;;;4.20;0.22;;;19.70;99.90;;;;;;5035372;28;20033;-75
2023/07/04 10:24:17;;;;;;;4.30;0.73;;;19.50;99.90;;;;;;5035308;28;20018;-75
2023/07/04 10:26:48;;;;;;;5.07;0.30;;;19.30;99.90;;;;;;5035352;28;20451;-75
2023/07/04 10:29:27;;;;;;;2.95;0.03;;;19.10;99.90;;;;;;5035093;28;20057;-75
2023/07/04 10:32:01;;;;;;;2.92;0.00;;;18.90;99.90;;;;;;5034691;28;20056;-75
2023/07/04 10:34:28;;;;;;;3.17;0.35;;;18.60;99.90;;;;;;5035638;28;20029;-75
2023/07/04 10:36:54;;;;;;;8.27;0.52;;;18.40;99.90;;;;;;5034510;28;20060;-75
2023/07/04 10:39:20;;;;;;;2.40;0.10;;;18.30;99.90;;;;;;5033210;28;20040;-75
2023/07/04 10:41:55;;;;;;;2.40;0.10;;;18.10;99.90;;;;;;5034344;28;20021;-75
2023/07/04 10:44:24;;;;;;;3.72;0.30;;;18.10;99.90;;;;;;5034843;28;20021;-75
2023/07/04 10:46:52;;;;;;;;;;;18.30;99.90;;;;;;5033497;28;20025;-75
2023/07/04 10:49:21;;;;;;;6.10;0.13;;;18.60;99.90;;;;;;5033159;28;20316;-75
2023/07/04 10:51:48;;;;;;;;;;;18.80;99.90;;;;;;5034640;28;20409;-75
2023/07/04 10:54:14;;;;;;;5.00;0.50;;;19.10;99.90;;;;;;5034191;28;20352;-75
2023/07/04 10:56:45;;;;;;;3.80;0.00;;;19.50;99.90;;;;;;5034205;28;20029;-75
2023/07/04 10:59:32;;;;;;;2.22;0.10;;;19.50;99.90;;;;;;5034090;28;20022;-75
2023/07/04 11:02:13;;;;;;;6.97;0.43;;;19.50;99.90;;;;;;5032700;28;20060;-75
2023/07/04 11:04:41;;;;;;;7.15;0.47;;;19.80;99.90;;;;;;5033998;28;20055;-75
2023/07/04 11:07:15;;;;;;;1.85;0.00;;;20.30;99.90;;;;;;5034498;28;20029;-75
2023/07/04 11:09:41;;;;;;;4.38;0.20;;;20.30;99.50;;;;;;5032717;28;20013;-75
2023/07/04 11:12:13;;;;;;;2.83;0.17;;;20.50;99.10;;;;;;5033918;28;20018;-75
2023/07/04 11:14:41;;;;;;;2.92;0.20;;;20.30;98.80;;;;;;5033610;28;20060;-75
2023/07/04 11:17:13;;;;;;;4.28;0.00;;;20.30;99.00;;;;;;5033877;28;20040;-75
2023/07/04 11:19:56;;;;;;;2.72;0.03;;;20.10;98.50;;;;;;5032532;28;20481;-75
2023/07/04 11:22:57;;;;;;;3.85;0.50;;;20.10;98.50;;;;;;5033639;28;20021;-75
2023/07/04 11:25:51;;;;;;;1.80;0.10;;;20.40;99.40;;;;;;5031918;28;20580;-75
2023/07/04 11:28:35;;;;;;;6.85;0.90;;;20.60;98.60;;;;;;5032415;28;20026;-75
2023/07/04 11:31:18;;;;;;;3.22;0.38;;;20.70;96.80;;;;;;5032246;28;20044;-75
2023/07/04 11:33:52;;;;;;;1.95;0.00;;;20.70;97.00;;;;;;5033518;28;20017;-75
2023/07/04 11:36:25;;;;;;;4.65;0.10;;;20.90;96.10;;;;;;5033462;28;20030;-75
2023/07/04 11:38:53;;;;;;;5.45;0.38;;;21.00;96.90;;;;;;5033932;28;20049;-75
2023/07/04 11:41:41;;;;;;;5.85;0.57;;;21.10;95.60;;;;;;5031527;28;20534;-75
2023/07/04 11:44:41;;;;;;;2.63;0.38;;;21.10;95.50;;;;;;5033369;28;20071;-75
2023/07/04 11:47:10;;;;;;;4.55;0.30;;;21.20;95.40;;;;;;5033241;28;20021;-75
2023/07/04 11:49:37;;;;;;;1.80;0.32;;;21.20;95.10;;;;;;5033358;28;20029;-75
2023/07/04 11:52:10;;;;;;;4.13;0.35;;;20.90;94.70;;;;;;5033316;28;20017;-75
2023/07/04 11:54:36;;;;;;;8.40;0.15;;;20.70;96.80;;;;;;5033704;28;20477;-75
2023/07/04 11:57:07;;;;;;;1.70;0.28;;;20.50;96.20;;;;;;5031914;28;20060;-75
2023/07/04 11:59:42;;;;;;;7.55;0.47;;;20.60;97.60;;;;;;5033227;28;20029;-75
2023/07/04 12:02:23;;;;;;;5.13;0.10;;;21.00;97.30;;;;;;5031854;28;20035;-75
2023/07/04 12:04:49;;;;;;;5.35;0.15;;;21.40;96.10;;;;;;5032081;28;20048;-75
2023/07/04 12:07:44;;;;;;;5.25;0.68;;;21.50;95.20;;;;;;5031939;28;20009;-75
2023/07/04 12:10:18;;;;;;;5.15;1.00;;;21.50;94.40;;;;;;5033066;28;20022;-75
2023/07/04 12:12:45;;;;;;;4.35;0.55;;;21.40;94.40;;;;;;5032797;28;20032;-75
2023/07/04 12:15:18;;;;;;;3.15;0.22;;;21.10;94.60;;;;;;5033702;28;20503;-75
2023/07/04 12:17:45;;;;;;;1.40;0.00;;;21.20;95.80;;;;;;5033323;28;20034;-75
2023/07/04 12:20:11;;;;;;;4.10;0.05;;;21.40;95.30;;;;;;5033044;28;20022;-75
2023/07/04 12:22:54;;;;;;;2.05;0.25;;;21.50;95.00;;;;;;5033391;28;20025;-75
2023/07/04 12:25:28;;;;;;;1.75;0.00;;;21.60;94.50;;;;;;5033052;28;20485;-75
2023/07/04 12:28:01;;;;;;;3.35;0.30;;;21.80;93.70;;;;;;5031648;28;20022;-75
2023/07/04 12:30:27;;;;;;;1.63;0.38;;;22.10;95.10;;;;;;5033014;28;20139;-75
2023/07/04 12:32:53;;;;;;;1.85;0.30;;;22.70;94.70;;;;;;5032812;28;20022;-75
2023/07/04 12:35:23;;;;;;;4.28;0.28;;;23.00;94.90;;;;;;5032837;28;20077;-75
2023/07/04 12:37:51;;;;;;;3.58;0.05;;;23.20;93.00;;;;;;5033122;28;20021;-75
2023/07/04 12:40:19;;;;;;;;;;;23.30;92.70;;;;;;5033359;28;20033;-75
2023/07/04 12:42:45;;;;;;;1.40;0.20;;;23.40;91.40;;;;;;5032650;28;19956;-75
2023/07/04 12:45:25;;;;;;;3.67;0.10;;;23.30;91.70;;;;;;5032852;28;20018;-75
2023/07/04 12:47:54;;;;;;;3.28;0.03;;;23.40;93.10;;;;;;5031656;28;20021;-75
2023/07/04 12:50:21;;;;;;;3.05;0.10;;;23.60;89.50;;;;;;5031421;28;20017;-75
2023/07/04 12:52:48;;;;;;;2.08;0.13;;;23.10;90.00;;;;;;5031931;28;20048;-75
2023/07/04 12:55:31;;;;;;;2.37;0.00;;;22.80;90.70;;;;;;5036492;28;20475;-75
2023/07/04 12:57:58;;;;;;;2.22;0.00;;;22.90;89.70;;;;;;5036560;28;20032;-75